Archival Weather

Westchester County

White Plains, New York (KHPN)

Report from: Friday, February 23, 2024 3:56 AM EST
Current time: Wednesday, May 29, 2024 7:58 PM EDT

Current weather – Weather history – Daily summaries
Weather forecast

Present weatherLight rain, fog
Temperature3.3°C (37.9°F)
Wind chill0.8°C (33.5°F)
Dew point2.2°C (36.0°F)
Winds 5 kts (2.6 m/s, 5.8 mph) East-Northeast (70°)
Visibility2640 ft. (804.7 m)
Clouds Ceiling: Vertical visibility 200 ft. (61 m)
Altimeter29.54 in.Hg (1000 mB)
Precipitiation0.01 in. (0 mm)
Precip last 3 hours0.04 in. (1 mm)
Relative humidity92 %
Density altitude-890 ft. (-271 m)
Sea-level pressure100.1 kPa (1001 mB, 29.56 in.Hg)
Remarks Automated weather observing station with precipitation discriminator
Pressure falling
Flight conditions Low Instrument Meteorological Conditions
Raw dataKHPN 230856Z 07005KT 1/2SM R16/4000V5000FT -RA FG VV002 03/02 A2954 RMK AO2 SLP009 P0001 60004 T00330022 57037
An error has occurred. This application may no longer respond until reloaded. Reload 🗙